createdAt,value
2022-12-21T00:00:01.032Z,98223.03
2022-12-21T00:02:28.832Z,98216.19
2022-12-21T00:04:56.753Z,98216.41
2022-12-21T00:07:24.403Z,98222.38
2022-12-21T00:09:51.665Z,98218.72
2022-12-21T00:12:19.258Z,98221.28
2022-12-21T00:14:46.592Z,98208.09
2022-12-21T00:17:14.253Z,98214.25
2022-12-21T00:19:42.008Z,98205.78
2022-12-21T00:22:09.603Z,98192.78
2022-12-21T00:24:37.120Z,98198.53
2022-12-21T00:27:04.932Z,98181.84
2022-12-21T00:29:32.286Z,98183.94
2022-12-21T00:32:00.550Z,98205.34
2022-12-21T00:34:28.012Z,98198.06
2022-12-21T00:36:57.667Z,98206.34
2022-12-21T00:39:24.950Z,98214.00
2022-12-21T00:41:52.566Z,98207.97
2022-12-21T00:44:19.877Z,98210.69
2022-12-21T00:46:48.514Z,98200.56
2022-12-21T00:49:19.269Z,98212.53
2022-12-21T00:51:49.795Z,98202.94
2022-12-21T00:54:17.302Z,98194.16
2022-12-21T00:56:44.921Z,98191.66
2022-12-21T00:59:12.222Z,98190.97
2022-12-21T01:01:40.042Z,98207.41
2022-12-21T01:04:07.493Z,98207.31
2022-12-21T01:06:36.539Z,98197.00
2022-12-21T01:09:08.414Z,98196.38
2022-12-21T01:11:35.959Z,98194.50
2022-12-21T01:14:03.254Z,98184.56
2022-12-21T01:16:33.616Z,98164.84
2022-12-21T01:19:04.098Z,98163.16
2022-12-21T01:21:32.876Z,98170.84
2022-12-21T01:24:01.630Z,98154.41
2022-12-21T01:26:30.525Z,98149.75
2022-12-21T01:28:58.355Z,98167.94
2022-12-21T01:31:25.994Z,98166.53
2022-12-21T01:33:53.531Z,98162.91
2022-12-21T01:36:22.089Z,98152.63
2022-12-21T01:38:49.366Z,98175.69
2022-12-21T01:41:25.150Z,98159.53
2022-12-21T01:44:08.544Z,98180.28
2022-12-21T01:46:48.898Z,98166.53
2022-12-21T01:49:33.344Z,98163.34
2022-12-21T01:52:14.220Z,98150.59
2022-12-21T01:54:57.409Z,98155.88
2022-12-21T01:57:31.162Z,98158.16
2022-12-21T02:00:02.479Z,98157.31
2022-12-21T02:02:40.774Z,98158.09
2022-12-21T02:05:30.143Z,98150.38
2022-12-21T02:08:00.948Z,98144.38
2022-12-21T02:10:28.637Z,98146.19
2022-12-21T02:13:07.951Z,98135.00
2022-12-21T02:16:08.625Z,98122.09
2022-12-21T02:19:27.683Z,98112.31
2022-12-21T02:22:03.970Z,98113.03
2022-12-21T02:25:02.630Z,98098.50
2022-12-21T02:28:36.076Z,98087.63
2022-12-21T02:32:00.603Z,98116.41
2022-12-21T02:35:01.300Z,98107.25
2022-12-21T02:37:47.396Z,98100.56
2022-12-21T02:40:37.744Z,98120.19
2022-12-21T02:43:41.312Z,98107.22
2022-12-21T02:46:26.871Z,98101.97
2022-12-21T02:49:07.979Z,98123.94
2022-12-21T02:51:56.755Z,98104.59
2022-12-21T02:54:25.983Z,98090.84
2022-12-21T02:56:53.279Z,98097.84
2022-12-21T02:59:30.558Z,98114.16
2022-12-21T03:02:03.287Z,98107.13
2022-12-21T03:04:42.410Z,98112.38
2022-12-21T03:07:45.727Z,98108.06
2022-12-21T03:10:45.500Z,98114.69
2022-12-21T03:13:44.270Z,98114.88
2022-12-21T03:16:25.975Z,98127.69
2022-12-21T03:19:41.918Z,98124.41
2022-12-21T03:22:26.639Z,98115.63
2022-12-21T03:25:09.948Z,98109.19
2022-12-21T03:27:52.044Z,98089.56
2022-12-21T03:30:22.622Z,98113.47
2022-12-21T03:32:59.097Z,98112.59
2022-12-21T03:36:01.910Z,98108.97
2022-12-21T03:38:50.321Z,98103.16
2022-12-21T03:41:35.454Z,98108.94
2022-12-21T03:44:09.615Z,98115.38
2022-12-21T03:46:49.767Z,98118.13
2022-12-21T03:49:34.861Z,98118.00
2022-12-21T03:52:16.124Z,98131.00
2022-12-21T03:55:12.687Z,98133.81
2022-12-21T03:57:41.710Z,98125.25
2022-12-21T04:00:13.778Z,98125.13
2022-12-21T04:03:03.443Z,98119.75
2022-12-21T04:05:45.336Z,98100.00
2022-12-21T04:08:31.172Z,98094.47
2022-12-21T04:10:59.517Z,98099.66
2022-12-21T04:13:26.777Z,98094.47
2022-12-21T04:16:06.826Z,98114.97
2022-12-21T04:18:53.457Z,98090.22
2022-12-21T04:21:21.592Z,98103.69
2022-12-21T04:24:07.502Z,98106.06
2022-12-21T04:26:53.236Z,98099.56
2022-12-21T04:29:20.455Z,98105.22
2022-12-21T04:31:48.144Z,98093.56
2022-12-21T04:34:15.478Z,98108.13
2022-12-21T04:37:01.522Z,98104.47
2022-12-21T04:39:28.775Z,98111.59
2022-12-21T04:41:56.349Z,98103.63
2022-12-21T04:44:23.634Z,98113.38
2022-12-21T04:46:52.361Z,98120.91
2022-12-21T04:49:19.656Z,98122.63
2022-12-21T04:51:47.200Z,98129.31
2022-12-21T04:54:14.450Z,98124.13
2022-12-21T04:56:42.107Z,98132.88
2022-12-21T04:59:09.358Z,98118.94
2022-12-21T05:01:39.842Z,98128.63
2022-12-21T05:04:11.474Z,98119.34
2022-12-21T05:06:39.061Z,98115.94
2022-12-21T05:09:06.362Z,98118.53
2022-12-21T05:11:35.239Z,98119.31
2022-12-21T05:14:02.539Z,98111.50
2022-12-21T05:16:30.165Z,98107.19
2022-12-21T05:18:57.830Z,98112.44
2022-12-21T05:21:25.550Z,98119.00
2022-12-21T05:23:53.495Z,98116.09
2022-12-21T05:26:21.321Z,98106.91
2022-12-21T05:28:49.016Z,98120.25
2022-12-21T05:31:18.171Z,98119.28
2022-12-21T05:33:45.575Z,98114.25
2022-12-21T05:36:16.943Z,98107.47
2022-12-21T05:38:45.682Z,98111.31
2022-12-21T05:41:16.234Z,98108.59
2022-12-21T05:43:43.741Z,98099.66
2022-12-21T05:46:18.227Z,98095.59
2022-12-21T05:48:53.497Z,98089.13
2022-12-21T05:51:21.061Z,98092.72
2022-12-21T05:53:48.387Z,98083.09
2022-12-21T05:56:15.942Z,98081.25
2022-12-21T05:58:43.235Z,98076.78
2022-12-21T06:01:12.905Z,98090.19
2022-12-21T06:03:41.658Z,98089.47
2022-12-21T06:06:16.962Z,98080.72
2022-12-21T06:08:45.282Z,98100.34
2022-12-21T06:11:20.972Z,98091.28
2022-12-21T06:13:48.904Z,98093.41
2022-12-21T06:16:26.065Z,98081.31
2022-12-21T06:18:54.428Z,98097.78
2022-12-21T06:21:22.385Z,98093.84
2022-12-21T06:23:49.871Z,98086.13
2022-12-21T06:26:20.565Z,98076.16
2022-12-21T06:28:50.451Z,98065.63
2022-12-21T06:31:19.257Z,98066.75
2022-12-21T06:33:46.903Z,98088.16
2022-12-21T06:36:15.203Z,98089.72
2022-12-21T06:38:42.496Z,98087.81
2022-12-21T06:41:13.748Z,98083.19
2022-12-21T06:43:43.105Z,98081.31
2022-12-21T06:46:14.942Z,98066.75
2022-12-21T06:48:43.305Z,98067.09
2022-12-21T06:51:20.323Z,98058.09
2022-12-21T06:53:50.604Z,98058.78
2022-12-21T06:56:24.762Z,98053.66
2022-12-21T06:58:54.670Z,98048.22
2022-12-21T07:01:28.547Z,98047.81
2022-12-21T07:03:56.964Z,98050.16
2022-12-21T07:06:27.599Z,98067.50
2022-12-21T07:08:56.103Z,98048.28
2022-12-21T07:11:28.273Z,98058.38
2022-12-21T07:13:57.355Z,98051.91
2022-12-21T07:16:25.827Z,98069.75
2022-12-21T07:18:54.505Z,98063.03
2022-12-21T07:21:23.020Z,98065.00
2022-12-21T07:23:50.896Z,98065.06
2022-12-21T07:26:24.596Z,98066.19
2022-12-21T07:28:56.023Z,98069.53
2022-12-21T07:31:27.032Z,98063.47
2022-12-21T07:33:54.893Z,98066.53
2022-12-21T07:36:22.863Z,98051.34
2022-12-21T07:38:50.138Z,98065.16
2022-12-21T07:41:18.525Z,98058.72
2022-12-21T07:43:46.863Z,98061.44
2022-12-21T07:46:17.209Z,98060.06
2022-12-21T07:48:44.533Z,98063.78
2022-12-21T07:51:12.796Z,98059.63
2022-12-21T07:53:40.403Z,98056.63
2022-12-21T07:56:19.578Z,98052.78
2022-12-21T07:58:47.361Z,98051.81
2022-12-21T08:01:19.538Z,98053.78
2022-12-21T08:03:48.549Z,98055.09
2022-12-21T08:06:17.347Z,98053.94
2022-12-21T08:08:45.474Z,98042.47
2022-12-21T08:11:18.275Z,98048.41
2022-12-21T08:13:47.089Z,98046.34
2022-12-21T08:16:18.632Z,98050.75
2022-12-21T08:18:46.621Z,98049.38
2022-12-21T08:21:14.705Z,98050.66
2022-12-21T08:23:42.482Z,98043.19
2022-12-21T08:26:13.380Z,98040.53
2022-12-21T08:28:42.251Z,98033.03
2022-12-21T08:31:15.394Z,98045.94
2022-12-21T08:33:44.227Z,98046.84
2022-12-21T08:36:15.726Z,98045.69
2022-12-21T08:39:08.471Z,98060.03
2022-12-21T08:41:30.966Z,98054.06
2022-12-21T08:43:58.442Z,98064.25
2022-12-21T08:46:26.340Z,98050.69
2022-12-21T08:48:54.400Z,98061.69
2022-12-21T08:51:22.448Z,98051.38
2022-12-21T08:53:52.345Z,98053.47
2022-12-21T08:56:21.621Z,98062.47
2022-12-21T08:58:49.644Z,98069.31
2022-12-21T09:01:24.808Z,98048.78
2022-12-21T09:03:52.325Z,98053.38
2022-12-21T09:06:20.148Z,98053.03
2022-12-21T09:08:47.759Z,98053.56
2022-12-21T09:11:18.773Z,98056.72
2022-12-21T09:13:46.279Z,98058.88
2022-12-21T09:16:21.997Z,98058.06
2022-12-21T09:18:50.399Z,98049.25
2022-12-21T09:21:21.356Z,98042.63
2022-12-21T09:23:49.269Z,98056.91
2022-12-21T09:26:17.464Z,98051.91
2022-12-21T09:28:45.071Z,98044.84
2022-12-21T09:31:24.332Z,98057.72
2022-12-21T09:33:55.804Z,98043.72
2022-12-21T09:36:25.629Z,98039.31
2022-12-21T09:38:56.228Z,98037.91
2022-12-21T09:41:30.376Z,98027.78
2022-12-21T09:44:36.000Z,98023.22
2022-12-21T09:47:11.914Z,98026.59
2022-12-21T09:49:49.645Z,98027.38
2022-12-21T09:52:31.116Z,98027.44
2022-12-21T09:55:06.405Z,98036.53
2022-12-21T09:57:36.898Z,98035.63
2022-12-21T10:00:19.031Z,98033.66
2022-12-21T10:03:27.369Z,98033.38
2022-12-21T10:06:54.326Z,98040.72
2022-12-21T10:09:41.442Z,98045.28
2022-12-21T10:12:31.213Z,98035.81
2022-12-21T10:15:23.144Z,98038.28
2022-12-21T10:18:19.203Z,98026.69
2022-12-21T10:21:26.887Z,98012.50
2022-12-21T10:23:58.352Z,98009.00
2022-12-21T10:26:29.418Z,98014.03
2022-12-21T10:29:15.693Z,98026.28
2022-12-21T10:31:48.115Z,98018.38
2022-12-21T10:34:24.676Z,98019.47
2022-12-21T10:37:01.107Z,98017.81
2022-12-21T10:39:31.374Z,98009.63
2022-12-21T10:42:43.826Z,98008.72
2022-12-21T10:45:21.807Z,98001.31
2022-12-21T10:47:53.735Z,97998.72
2022-12-21T10:50:39.525Z,97988.72
2022-12-21T10:53:29.069Z,97982.97
2022-12-21T10:56:00.102Z,97991.94
2022-12-21T10:58:33.101Z,97968.63
2022-12-21T11:01:17.016Z,97968.13
2022-12-21T11:03:44.849Z,97956.63
2022-12-21T11:06:20.419Z,97970.44
2022-12-21T11:08:53.971Z,97969.25
2022-12-21T11:11:36.035Z,97972.31
2022-12-21T11:14:24.394Z,97964.47
2022-12-21T11:16:53.480Z,97963.56
2022-12-21T11:19:23.614Z,97956.63
2022-12-21T11:21:51.056Z,97953.38
2022-12-21T11:24:33.775Z,97964.19
2022-12-21T11:27:13.129Z,97960.13
2022-12-21T11:29:54.386Z,97956.16
2022-12-21T11:32:23.097Z,97961.66
2022-12-21T11:34:58.883Z,97943.22
2022-12-21T11:37:37.280Z,97958.50
2022-12-21T11:40:22.732Z,97949.44
2022-12-21T11:43:09.585Z,97942.69
2022-12-21T11:46:53.120Z,97943.91
2022-12-21T11:49:34.359Z,97940.00
2022-12-21T11:52:11.068Z,97954.09
2022-12-21T11:55:14.297Z,97951.78
2022-12-21T11:58:40.059Z,97949.41
2022-12-21T12:01:53.458Z,97944.66
2022-12-21T12:05:05.471Z,97936.66
2022-12-21T12:08:08.166Z,97936.50
2022-12-21T12:11:03.094Z,97936.56
2022-12-21T12:14:34.022Z,97943.91
2022-12-21T12:17:23.491Z,97932.31
2022-12-21T12:20:44.803Z,97925.44
2022-12-21T12:23:47.533Z,97928.66
2022-12-21T12:26:46.798Z,97922.41
2022-12-21T12:29:57.475Z,97915.09
2022-12-21T12:32:52.220Z,97930.06
2022-12-21T12:35:38.965Z,97919.75
2022-12-21T12:38:20.609Z,97924.59
2022-12-21T12:41:09.219Z,97913.44
2022-12-21T12:44:02.962Z,97916.41
2022-12-21T12:46:52.347Z,97913.94
2022-12-21T12:49:50.284Z,97914.63
2022-12-21T12:53:01.883Z,97917.91
2022-12-21T12:56:06.544Z,97904.25
2022-12-21T12:59:00.559Z,97908.50
2022-12-21T13:01:43.011Z,97905.69
2022-12-21T13:04:54.223Z,97898.25
2022-12-21T13:07:45.073Z,97888.84
2022-12-21T13:10:32.496Z,97881.44
2022-12-21T13:13:18.069Z,97893.34
2022-12-21T13:16:01.974Z,97896.00
2022-12-21T13:18:38.347Z,97898.34
2022-12-21T13:21:08.643Z,97891.50
2022-12-21T13:23:47.900Z,97904.22
2022-12-21T13:26:29.133Z,97914.47
2022-12-21T13:29:09.826Z,97914.81
2022-12-21T13:31:57.399Z,97908.88
2022-12-21T13:34:38.108Z,97915.06
2022-12-21T13:37:18.473Z,97907.69
2022-12-21T13:39:51.924Z,97905.00
2022-12-21T13:42:30.923Z,97907.84
2022-12-21T13:45:16.222Z,97914.22
2022-12-21T13:47:45.853Z,97917.94
2022-12-21T13:50:31.467Z,97933.13
2022-12-21T13:53:08.512Z,97913.94
2022-12-21T13:56:05.809Z,97921.69
2022-12-21T13:58:55.088Z,97926.19
2022-12-21T14:01:45.473Z,97923.34
2022-12-21T14:04:39.504Z,97922.88
2022-12-21T14:07:42.000Z,97928.69
2022-12-21T14:10:47.942Z,97930.84
2022-12-21T14:13:27.759Z,97935.88
2022-12-21T14:16:06.289Z,97941.22
2022-12-21T14:18:40.450Z,97934.53
2022-12-21T14:21:24.393Z,97943.28
2022-12-21T14:23:57.067Z,97935.63
2022-12-21T14:26:47.678Z,97947.59
2022-12-21T14:29:36.235Z,97928.13
2022-12-21T14:32:20.137Z,97944.63
2022-12-21T14:35:02.007Z,97932.00
2022-12-21T14:37:34.520Z,97930.22
2022-12-21T14:40:14.397Z,97931.28
2022-12-21T14:42:41.997Z,97936.19
2022-12-21T14:45:17.277Z,97936.66
2022-12-21T14:47:53.688Z,97928.53
2022-12-21T14:50:21.428Z,97924.69
2022-12-21T14:53:00.542Z,97933.75
2022-12-21T14:55:42.716Z,97931.03
2022-12-21T14:58:23.366Z,97936.72
2022-12-21T15:01:13.449Z,97938.84
2022-12-21T15:04:01.484Z,97931.81
2022-12-21T15:06:37.311Z,97920.66
2022-12-21T15:09:32.645Z,97925.59
2022-12-21T15:12:40.471Z,97933.31
2022-12-21T15:15:38.694Z,97915.75
2022-12-21T15:18:38.564Z,97926.81
2022-12-21T15:21:30.921Z,97907.31
2022-12-21T15:25:00.971Z,97910.00
2022-12-21T15:27:49.590Z,97912.25
2022-12-21T15:30:42.404Z,97915.66
2022-12-21T15:33:22.933Z,97921.41
2022-12-21T15:36:02.005Z,97897.97
2022-12-21T15:38:43.158Z,97913.94
2022-12-21T15:41:32.618Z,97919.09
2022-12-21T15:44:16.566Z,97916.25
2022-12-21T15:47:05.380Z,97918.38
2022-12-21T15:49:41.286Z,97913.22
2022-12-21T15:52:29.609Z,97916.91
2022-12-21T15:55:06.914Z,97908.19
2022-12-21T15:58:00.213Z,97896.97
2022-12-21T16:00:32.224Z,97892.06
2022-12-21T16:03:04.034Z,97892.00
2022-12-21T16:05:34.703Z,97885.81
2022-12-21T16:08:04.565Z,97888.38
2022-12-21T16:10:39.523Z,97896.78
2022-12-21T16:13:12.410Z,97892.44
2022-12-21T16:15:43.434Z,97897.88
2022-12-21T16:18:18.490Z,97892.97
2022-12-21T16:20:57.123Z,97885.03
2022-12-21T16:23:33.102Z,97876.34
2022-12-21T16:26:03.844Z,97878.03
2022-12-21T16:28:37.536Z,97881.16
2022-12-21T16:31:28.580Z,97887.69
2022-12-21T16:34:01.359Z,97872.66
2022-12-21T16:36:30.030Z,97868.88
2022-12-21T16:39:01.541Z,97869.78
2022-12-21T16:41:30.548Z,97872.94
2022-12-21T16:44:00.792Z,97865.06
2022-12-21T16:46:54.466Z,97862.22
2022-12-21T16:49:28.301Z,97864.69
2022-12-21T16:52:00.898Z,97864.78
2022-12-21T16:54:41.218Z,97869.13
2022-12-21T16:57:29.948Z,97857.38
2022-12-21T16:59:59.340Z,97868.34
2022-12-21T17:02:35.029Z,97849.97
2022-12-21T17:05:22.818Z,97862.97
2022-12-21T17:07:50.953Z,97861.81
2022-12-21T17:10:22.439Z,97860.41
2022-12-21T17:13:15.462Z,97858.41
2022-12-21T17:15:44.588Z,97859.47
2022-12-21T17:18:41.429Z,97858.72
2022-12-21T17:24:33.052Z,97859.19
2022-12-21T17:27:13.341Z,97859.97
2022-12-21T17:29:41.530Z,97859.25
2022-12-21T17:32:19.144Z,97860.22
2022-12-21T17:34:47.300Z,97842.75
2022-12-21T17:37:26.463Z,97844.28
2022-12-21T17:39:54.270Z,97847.56
2022-12-21T17:42:25.501Z,97856.28
2022-12-21T17:44:56.164Z,97856.41
2022-12-21T17:47:30.309Z,97850.94
2022-12-21T17:49:58.699Z,97850.69
2022-12-21T17:52:27.206Z,97842.63
2022-12-21T17:54:54.895Z,97841.72
2022-12-21T17:57:27.658Z,97844.19
2022-12-21T17:59:55.745Z,97854.44
2022-12-21T18:02:24.936Z,97851.56
2022-12-21T18:04:57.301Z,97840.53
2022-12-21T18:07:25.773Z,97851.75
2022-12-21T18:09:53.462Z,97845.25
2022-12-21T18:12:20.779Z,97856.28
2022-12-21T18:14:48.422Z,97845.97
2022-12-21T18:17:17.678Z,97837.25
2022-12-21T18:19:47.923Z,97843.09
2022-12-21T18:22:15.350Z,97836.25
2022-12-21T18:24:45.093Z,97831.25
2022-12-21T18:27:21.689Z,97820.59
2022-12-21T18:29:49.412Z,97821.44
2022-12-21T18:32:18.487Z,97823.78
2022-12-21T18:34:48.407Z,97817.28
2022-12-21T18:37:18.694Z,97810.78
2022-12-21T18:39:47.559Z,97815.06
2022-12-21T18:42:18.599Z,97820.59
2022-12-21T18:44:47.480Z,97818.28
2022-12-21T18:47:29.987Z,97814.44
2022-12-21T18:49:59.340Z,97814.94
2022-12-21T18:52:28.100Z,97811.22
2022-12-21T18:54:55.870Z,97818.06
2022-12-21T18:57:23.638Z,97823.94
2022-12-21T18:59:54.156Z,97824.69
2022-12-21T19:02:31.857Z,97834.13
2022-12-21T19:05:06.819Z,97834.34
2022-12-21T19:07:38.767Z,97826.66
2022-12-21T19:10:16.281Z,97826.19
2022-12-21T19:12:43.641Z,97838.03
2022-12-21T19:15:13.096Z,97835.38
2022-12-21T19:17:43.348Z,97825.63
2022-12-21T19:20:31.072Z,97825.69
2022-12-21T19:22:58.598Z,97832.34
2022-12-21T19:25:26.887Z,97845.28
2022-12-21T19:27:54.293Z,97844.19
2022-12-21T19:30:28.265Z,97833.22
2022-12-21T19:32:59.586Z,97837.63
2022-12-21T19:35:36.959Z,97831.06
2022-12-21T19:38:05.982Z,97825.47
2022-12-21T19:40:40.666Z,97829.69
2022-12-21T19:43:17.076Z,97815.88
2022-12-21T19:45:46.049Z,97833.19
2022-12-21T19:48:37.319Z,97820.28
2022-12-21T19:51:09.732Z,97808.72
2022-12-21T19:53:43.037Z,97814.72
2022-12-21T19:56:19.088Z,97817.81
2022-12-21T19:58:50.761Z,97826.38
2022-12-21T20:01:34.997Z,97823.28
2022-12-21T20:04:03.784Z,97824.38
2022-12-21T20:06:31.657Z,97824.19
2022-12-21T20:08:58.973Z,97834.09
2022-12-21T20:11:28.757Z,97835.53
2022-12-21T20:13:59.041Z,97836.44
2022-12-21T20:16:30.054Z,97829.38
2022-12-21T20:18:57.423Z,97837.69
2022-12-21T20:21:28.859Z,97814.31
2022-12-21T20:23:56.727Z,97821.72
2022-12-21T20:26:29.051Z,97824.38
2022-12-21T20:29:04.018Z,97834.97
2022-12-21T20:31:31.982Z,97811.97
2022-12-21T20:34:00.214Z,97816.00
2022-12-21T20:36:35.159Z,97822.56
2022-12-21T20:39:11.408Z,97818.38
2022-12-21T20:41:57.824Z,97806.72
2022-12-21T20:44:25.703Z,97827.72
2022-12-21T20:46:54.242Z,97808.25
2022-12-21T20:49:24.952Z,97814.28
2022-12-21T20:51:52.823Z,97809.22
2022-12-21T20:54:21.725Z,97815.72
2022-12-21T20:56:49.633Z,97808.31
2022-12-21T20:59:17.048Z,97806.66
2022-12-21T21:01:59.141Z,97808.06
2022-12-21T21:04:36.434Z,97802.13
2022-12-21T21:07:26.501Z,97806.38
2022-12-21T21:09:55.696Z,97810.72
2022-12-21T21:12:23.336Z,97810.22
2022-12-21T21:14:50.781Z,97799.13
2022-12-21T21:17:32.279Z,97797.03
2022-12-21T21:20:03.220Z,97809.03
2022-12-21T21:22:56.559Z,97814.88
2022-12-21T21:25:36.341Z,97804.06
2022-12-21T21:28:25.095Z,97792.41
2022-12-21T21:30:56.930Z,97805.38
2022-12-21T21:33:25.575Z,97795.41
2022-12-21T21:35:57.879Z,97810.41
2022-12-21T21:38:52.805Z,97800.66
2022-12-21T21:41:41.954Z,97810.41
2022-12-21T21:44:18.753Z,97799.81
2022-12-21T21:46:47.379Z,97788.22
2022-12-21T21:49:17.917Z,97800.03
2022-12-21T21:51:48.519Z,97802.63
2022-12-21T21:54:17.678Z,97793.03
2022-12-21T21:56:55.717Z,97803.38
2022-12-21T21:59:34.755Z,97803.97
2022-12-21T22:02:08.400Z,97798.47
2022-12-21T22:04:36.306Z,97803.78
2022-12-21T22:07:03.636Z,97823.53
2022-12-21T22:09:31.408Z,97814.88
2022-12-21T22:11:58.866Z,97804.63
2022-12-21T22:14:34.076Z,97807.06
2022-12-21T22:17:16.876Z,97798.53
2022-12-21T22:20:03.197Z,97808.88
2022-12-21T22:22:49.039Z,97807.06
2022-12-21T22:25:38.852Z,97821.44
2022-12-21T22:28:40.550Z,97813.78
2022-12-21T22:31:37.887Z,97798.38
2022-12-21T22:34:05.368Z,97792.91
2022-12-21T22:36:51.585Z,97793.66
2022-12-21T22:39:43.842Z,97807.91
2022-12-21T22:42:29.465Z,97802.66
2022-12-21T22:45:09.219Z,97809.56
2022-12-21T22:47:37.755Z,97807.97
2022-12-21T22:50:07.294Z,97819.44
2022-12-21T22:52:37.531Z,97808.19
2022-12-21T22:55:06.419Z,97823.69
2022-12-21T22:57:37.230Z,97816.00
2022-12-21T23:00:06.451Z,97809.88
2022-12-21T23:02:34.166Z,97833.59
2022-12-21T23:05:01.726Z,97808.69
2022-12-21T23:07:29.353Z,97834.22
2022-12-21T23:09:56.717Z,97811.69
2022-12-21T23:12:42.873Z,97800.53
2022-12-21T23:15:13.686Z,97790.88
2022-12-21T23:18:00.197Z,97794.09
2022-12-21T23:20:31.033Z,97767.84
2022-12-21T23:23:20.359Z,97768.31
2022-12-21T23:26:07.528Z,97763.66
2022-12-21T23:28:41.298Z,97755.91
2022-12-21T23:31:36.070Z,97752.66
2022-12-21T23:34:22.185Z,97751.03
2022-12-21T23:37:08.110Z,97745.09
2022-12-21T23:39:57.952Z,97756.00
2022-12-21T23:42:53.062Z,97761.41
2022-12-21T23:45:24.825Z,97758.38
2022-12-21T23:48:38.440Z,97760.72
2022-12-21T23:51:40.111Z,97761.19
2022-12-21T23:54:40.160Z,97770.34
2022-12-21T23:57:34.238Z,97744.38
